Perkinsville, VT (05151)

5:05 PM EDT on July 27, 2016 (GMT -0400)
Pikes Peak | | Change Station

Elev 1200 ft 43.40 °N, 72.48 °W | Updated 22 seconds ago

Partly Cloudy
Partly Cloudy
86.8 °F
Feels Like 87 °F
N
3.0
Wind Variable Wind from West
Gusts 3.0 mph

Today
High -- | Low -- °F
--% Chance of Precip.
Yesterday
High -- | Low -- °F
Precip. -- in
Pressure 29.89 in
Visibility 10.0 miles
Clouds Few 7000 ft
Heat Index 87 °F
Dew Point 62 °F
Humidity 44%
Rainfall 0.00 in
Snow Depth Not available.
5:35 AM 8:17 PM
Last Quarter, 39% visible
METAR KVSF 272054Z AUTO 25007KT 10SM FEW070 30/14 A2989 RMK AO2 SLP120 T03000144 58008 TSNO
Pressure 29.89 in
Visibility 10.0 miles
Clouds Few 7000 ft
Heat Index 87 °F
Dew Point 62 °F
Humidity 44%
Rainfall 0.00 in
Snow Depth Not available.
5:35 AM 8:17 PM
Last Quarter, 39% visible
METAR KVSF 272054Z AUTO 25007KT 10SM FEW070 30/14 A2989 RMK AO2 SLP120 T03000144 58008 TSNO

10-Day Weather Forecast

Almanac

Astronomy

Jul. 27, 2016 Rise Set
Actual Time
Civil Twilight
Nautical Twilight
Astronomical Twilight
Moon
Length of Visible Light
Length of Day
Tomorrow will be .
, % of the Moon is Illuminated

Today's Extremes

State Highs State Lows

Community

WunderPhotos

Upload Photos

1,927,936 photos uploaded!

WunderBlog® & News

Nearby

Air Quality

  Air Quality AQ Index Pollutant
Not available.

Snow Depth

Station Depth Elevation

Earthquake Activity

City Distance Mag. Time & Date
Minimum magnitude displayed is 2.5.

Coastal Water Temperatures

Place Temperature

Stations

Nearby Weather Stations

Station Location Temp. Windchill Dew Point Humidity Wind Precip. Elev Updated Type
                   

Watches & Warnings

There are currently no watches in effect.